Great Falls, MT (59401)

2:42 PM MDT on July 23, 2016 (GMT -0600)
Great Falls South SIde | | Change Station

Elev 3399 ft 47.50 °N, 111.27 °W | Updated 2 seconds ago

Mostly Cloudy
Mostly Cloudy
79.3 °F
Feels Like 79 °F
N
0.0
Wind Variable Wind from North
Gusts 1.0 mph

Today
High -- | Low -- °F
--% Chance of Precip.
Yesterday
High -- | Low -- °F
Precip. -- in
Pressure 30.01 in
Visibility 10.0 miles
Clouds Mostly Cloudy 8000 ft
Heat Index 79 °F
Dew Point 44 °F
Humidity 29%
Rainfall 0.00 in
Snow Depth Not available.
5:52 AM 9:09 PM
Waning Gibbous, 82% visible
METAR KGTF 231953Z 28008KT 10SM BKN080 24/04 A3007 RMK AO2 SLP160 T02440039
Pressure 30.01 in
Visibility 10.0 miles
Clouds Mostly Cloudy 8000 ft
Heat Index 79 °F
Dew Point 44 °F
Humidity 29%
Rainfall 0.00 in
Snow Depth Not available.
5:52 AM 9:09 PM
Waning Gibbous, 82% visible
METAR KGTF 231953Z 28008KT 10SM BKN080 24/04 A3007 RMK AO2 SLP160 T02440039

10-Day Weather Forecast

Almanac

Astronomy

Jul. 23, 2016 Rise Set
Actual Time
Civil Twilight
Nautical Twilight
Astronomical Twilight
Moon
Length of Visible Light
Length of Day
Tomorrow will be .
, % of the Moon is Illuminated

Today's Extremes

State Highs State Lows

Community

WunderPhotos

Upload Photos

1,926,919 photos uploaded!

WunderBlog® & News

Nearby

Air Quality

  Air Quality AQ Index Pollutant
Not available.

Snow Depth

Station Depth Elevation

Earthquake Activity

City Distance Mag. Time & Date
Minimum magnitude displayed is 2.5.

Coastal Water Temperatures

Place Temperature

Stations

Nearby Weather Stations

Station Location Temp. Windchill Dew Point Humidity Wind Precip. Elev Updated Type
                   

Watches & Warnings

There are currently no watches in effect.